createdAt,value
2018-09-22T00:01:47.520Z,100542.63
2018-09-22T00:06:49.649Z,100537.12
2018-09-22T00:11:51.844Z,100546.15
2018-09-22T00:16:54.058Z,100551.04
2018-09-22T00:21:56.249Z,100537.25
2018-09-22T00:26:58.378Z,100555.36
2018-09-22T00:32:00.580Z,100553.32
2018-09-22T00:37:02.736Z,100531.06
2018-09-22T00:42:05.469Z,100536.50
2018-09-22T00:47:07.626Z,100563.70
2018-09-22T00:52:09.795Z,100566.98
2018-09-22T00:57:11.912Z,100588.34
2018-09-22T01:02:14.093Z,100598.69
2018-09-22T01:07:16.219Z,100610.86
2018-09-22T01:12:18.391Z,100613.83
2018-09-22T01:17:20.526Z,100629.29
2018-09-22T01:22:23.218Z,100646.04
2018-09-22T01:27:25.318Z,100642.45
2018-09-22T01:32:27.463Z,100653.09
2018-09-22T01:37:30.263Z,100645.94
2018-09-22T01:42:32.411Z,100649.83
2018-09-22T01:47:34.542Z,100658.31
2018-09-22T01:52:36.811Z,100683.86
2018-09-22T01:57:38.856Z,100690.59
2018-09-22T02:02:41.005Z,100690.72
2018-09-22T02:07:43.117Z,100720.34
2018-09-22T02:12:45.253Z,100724.13
2018-09-22T02:17:47.426Z,100723.94
2018-09-22T02:22:49.567Z,100707.30
2018-09-22T02:27:51.689Z,100730.89
2018-09-22T02:32:53.817Z,100727.34
2018-09-22T02:37:55.951Z,100708.63
2018-09-22T02:42:58.095Z,100715.73
2018-09-22T02:48:00.227Z,100728.64
2018-09-22T02:53:02.400Z,100722.30
2018-09-22T02:58:04.523Z,100722.14
2018-09-22T03:03:06.685Z,100744.66
2018-09-22T03:08:08.857Z,100748.52
2018-09-22T03:13:10.993Z,100734.80
2018-09-22T03:18:13.197Z,100745.81
2018-09-22T03:23:15.323Z,100752.72
2018-09-22T03:28:17.468Z,100770.44
2018-09-22T03:33:19.592Z,100774.45
2018-09-22T03:38:21.723Z,100773.81
2018-09-22T03:43:24.148Z,100781.45
2018-09-22T03:48:26.270Z,100786.05
2018-09-22T03:53:28.547Z,100791.56
2018-09-22T03:58:30.719Z,100805.77
2018-09-22T04:03:32.833Z,100808.67
2018-09-22T04:08:34.965Z,100805.20
2018-09-22T04:13:37.084Z,100811.67
2018-09-22T04:18:39.291Z,100821.20
2018-09-22T04:23:41.407Z,100822.91
2018-09-22T04:28:43.521Z,100837.20
2018-09-22T04:33:45.636Z,100841.55
2018-09-22T04:38:47.783Z,100848.55
2018-09-22T04:43:49.966Z,100852.52
2018-09-22T04:48:52.098Z,100857.45
2018-09-22T04:53:54.247Z,100861.69
2018-09-22T04:58:56.643Z,100868.23
2018-09-22T05:03:58.752Z,100878.84
2018-09-22T05:09:00.881Z,100891.52
2018-09-22T05:14:03.037Z,100895.09
2018-09-22T05:19:05.411Z,100893.62
2018-09-22T05:24:07.524Z,100894.37
2018-09-22T05:29:09.672Z,100914.26
2018-09-22T05:34:11.857Z,100912.16
2018-09-22T05:39:14.018Z,100919.55
2018-09-22T05:44:16.140Z,100918.31
2018-09-22T05:49:18.318Z,100925.45
2018-09-22T05:54:20.503Z,100925.13
2018-09-22T05:59:22.665Z,100925.52
2018-09-22T06:04:24.803Z,100922.19
2018-09-22T06:09:26.954Z,100929.21
2018-09-22T06:14:29.098Z,100929.46
2018-09-22T06:19:31.262Z,100937.86
2018-09-22T06:24:33.407Z,100947.63
2018-09-22T06:29:35.523Z,100944.04
2018-09-22T06:34:37.663Z,100950.52
2018-09-22T06:39:39.818Z,100961.84
2018-09-22T06:44:41.976Z,100978.94
2018-09-22T06:49:44.092Z,100972.70
2018-09-22T06:54:46.247Z,100969.55
2018-09-22T06:59:48.371Z,100955.02
2018-09-22T07:04:50.540Z,100954.33
2018-09-22T07:09:52.650Z,100950.95
2018-09-22T07:14:54.822Z,100957.20
2018-09-22T07:19:56.998Z,100952.36
2018-09-22T07:24:59.191Z,100956.96
2018-09-22T07:30:01.319Z,100957.12
2018-09-22T07:35:03.555Z,100966.60
2018-09-22T07:40:05.742Z,100962.05
2018-09-22T07:45:07.919Z,100970.39
2018-09-22T07:50:10.104Z,100977.58
2018-09-22T07:55:12.265Z,100979.34
2018-09-22T08:00:14.469Z,100965.16
2018-09-22T08:05:16.616Z,100965.48
2018-09-22T08:10:18.774Z,100978.25
2018-09-22T08:15:20.938Z,100985.63
2018-09-22T08:20:23.190Z,100981.28
2018-09-22T08:25:25.373Z,100978.14
2018-09-22T08:30:27.459Z,100986.55
2018-09-22T08:35:29.614Z,101005.00
2018-09-22T08:40:31.727Z,101031.11
2018-09-22T08:45:33.947Z,101002.89
2018-09-22T08:50:36.111Z,101005.81
2018-09-22T08:55:38.299Z,100994.91
2018-09-22T09:00:40.520Z,100985.11
2018-09-22T09:05:42.654Z,100987.36
2018-09-22T09:10:44.822Z,100988.50
2018-09-22T09:15:47.006Z,100992.57
2018-09-22T09:20:49.291Z,100996.66
2018-09-22T09:25:51.395Z,100988.20
2018-09-22T09:30:53.586Z,100999.63
2018-09-22T09:35:55.742Z,101002.35
2018-09-22T09:40:57.864Z,101015.39
2018-09-22T09:46:00.034Z,101035.88
2018-09-22T09:51:02.315Z,101018.00
2018-09-22T09:56:04.457Z,101025.27
2018-09-22T10:01:06.611Z,101023.83
2018-09-22T10:06:08.750Z,101033.00
2018-09-22T10:11:10.880Z,101056.34
2018-09-22T10:16:13.057Z,101047.11
2018-09-22T10:21:15.247Z,101039.09
2018-09-22T10:26:17.775Z,101038.02
2018-09-22T10:31:19.948Z,101015.75
2018-09-22T10:36:22.096Z,101005.38
2018-09-22T10:41:24.252Z,100995.98
2018-09-22T10:46:26.393Z,100983.26
2018-09-22T10:51:28.576Z,100986.66
2018-09-22T10:56:30.726Z,101003.17
2018-09-22T11:01:32.887Z,100989.43
2018-09-22T11:06:35.064Z,101004.89
2018-09-22T11:11:37.382Z,100981.45
2018-09-22T11:16:39.660Z,100975.95
2018-09-22T11:21:41.858Z,100984.56
2018-09-22T11:26:44.067Z,100982.56
2018-09-22T11:31:46.278Z,100996.36
2018-09-22T11:36:48.450Z,100991.20
2018-09-22T11:41:50.643Z,100979.67
2018-09-22T11:46:52.815Z,100991.27
2018-09-22T11:51:55.019Z,100983.20
2018-09-22T11:56:57.196Z,100991.22
2018-09-22T12:01:59.392Z,100995.39
2018-09-22T12:07:01.570Z,100989.69
2018-09-22T12:12:03.860Z,100993.41
2018-09-22T12:17:06.037Z,100976.78
2018-09-22T12:22:08.198Z,100998.38
2018-09-22T12:27:10.390Z,100994.41
2018-09-22T12:32:12.566Z,101002.34
2018-09-22T12:37:14.728Z,101021.70
2018-09-22T12:42:16.887Z,101081.34
2018-09-22T12:47:19.061Z,101062.05
2018-09-22T12:52:21.215Z,101063.78
2018-09-22T12:57:23.388Z,101052.31
2018-09-22T13:02:25.556Z,101050.53
2018-09-22T13:07:27.730Z,101059.36
2018-09-22T13:12:29.881Z,101047.64
2018-09-22T13:17:32.036Z,101036.91
2018-09-22T13:22:35.572Z,101046.96
2018-09-22T13:27:38.394Z,101062.58
2018-09-22T13:32:40.599Z,101055.38
2018-09-22T13:37:42.816Z,101073.14
2018-09-22T13:42:44.974Z,101075.73
2018-09-22T13:47:47.168Z,101055.13
2018-09-22T13:52:49.295Z,101061.36
2018-09-22T13:57:51.459Z,101053.38
2018-09-22T14:02:53.640Z,101031.61
2018-09-22T14:07:55.820Z,101042.94
2018-09-22T14:12:58.001Z,101039.30
2018-09-22T14:18:00.164Z,101043.73
2018-09-22T14:23:02.358Z,101039.10
2018-09-22T14:28:04.546Z,101037.83
2018-09-22T14:33:06.761Z,101027.77
2018-09-22T14:38:08.915Z,101022.75
2018-09-22T14:43:11.081Z,101014.28
2018-09-22T14:48:13.336Z,101004.27
2018-09-22T14:53:15.519Z,101011.40
2018-09-22T14:58:17.752Z,101019.67
2018-09-22T15:03:19.943Z,101018.47
2018-09-22T15:08:22.143Z,101023.19
2018-09-22T15:13:24.323Z,101016.37
2018-09-22T15:18:27.027Z,101015.36
2018-09-22T15:23:29.336Z,101018.77
2018-09-22T15:28:31.542Z,100974.28
2018-09-22T15:33:33.709Z,101013.51
2018-09-22T15:38:35.885Z,101011.97
2018-09-22T15:43:38.035Z,101014.28
2018-09-22T15:48:40.308Z,101034.23
2018-09-22T15:53:42.352Z,101020.13
2018-09-22T15:58:44.521Z,101012.10
2018-09-22T16:03:46.713Z,101012.72
2018-09-22T16:08:49.145Z,101004.43
2018-09-22T16:13:51.291Z,101004.25
2018-09-22T16:18:53.458Z,101006.44
2018-09-22T16:23:55.679Z,101002.45
2018-09-22T16:28:57.904Z,100992.79
2018-09-22T16:34:00.349Z,100999.66
2018-09-22T16:39:02.778Z,100985.07
2018-09-22T16:44:05.005Z,100991.34
2018-09-22T16:49:07.260Z,100995.37
2018-09-22T16:54:09.392Z,101001.98
2018-09-22T16:59:11.571Z,100998.66
2018-09-22T17:04:13.755Z,101009.97
2018-09-22T17:09:15.975Z,101012.98
2018-09-22T17:14:18.162Z,101012.67
2018-09-22T17:19:20.336Z,101013.45
2018-09-22T17:24:22.554Z,101013.45
2018-09-22T17:29:24.744Z,101016.91
2018-09-22T17:34:27.874Z,101011.58
2018-09-22T17:39:30.053Z,100998.31
2018-09-22T17:44:32.235Z,101009.54
2018-09-22T17:49:34.438Z,101010.64
2018-09-22T17:54:36.630Z,101015.15
2018-09-22T17:59:38.914Z,101032.18
2018-09-22T18:04:41.128Z,101039.33
2018-09-22T18:09:43.434Z,101037.14
2018-09-22T18:14:45.727Z,101035.47
2018-09-22T18:19:47.957Z,101037.32
2018-09-22T18:24:50.260Z,101039.82
2018-09-22T18:29:52.919Z,101037.11
2018-09-22T18:34:55.111Z,101034.50
2018-09-22T18:39:57.331Z,101035.08
2018-09-22T18:44:59.733Z,101040.25
2018-09-22T18:50:01.997Z,101045.70
2018-09-22T18:55:04.639Z,101044.72
2018-09-22T19:00:06.959Z,101043.94
2018-09-22T19:05:09.243Z,101052.48
2018-09-22T19:10:11.619Z,101055.84
2018-09-22T19:15:20.972Z,101058.73
2018-09-22T19:20:28.340Z,101050.94
2018-09-22T19:25:33.262Z,101047.21
2018-09-22T19:30:40.399Z,101061.44
2018-09-22T19:37:49.975Z,101056.29
2018-09-22T19:42:58.205Z,101054.75
2018-09-22T19:48:05.421Z,101070.43
2018-09-22T19:53:07.852Z,101072.17
2018-09-22T19:58:10.262Z,101075.81
2018-09-22T20:03:12.532Z,101076.09
2018-09-22T20:08:14.830Z,101073.05
2018-09-22T20:13:18.216Z,101060.52
2018-09-22T20:18:20.702Z,101057.71
2018-09-22T20:23:23.001Z,101060.00
2018-09-22T20:28:25.335Z,101052.56
2018-09-22T20:33:27.696Z,101060.25
2018-09-22T20:38:29.863Z,101067.85
2018-09-22T20:43:32.131Z,101075.11
2018-09-22T20:48:34.375Z,101087.86
2018-09-22T20:53:36.620Z,101085.80
2018-09-22T20:58:38.814Z,101088.25
2018-09-22T21:03:41.093Z,101087.70
2018-09-22T21:08:43.399Z,101091.14
2018-09-22T21:13:45.677Z,101090.16
2018-09-22T21:18:47.882Z,101094.86
2018-09-22T21:23:50.062Z,101098.22
2018-09-22T21:28:52.336Z,101088.28
2018-09-22T21:33:54.565Z,101090.02
2018-09-22T21:38:56.790Z,101075.44
2018-09-22T21:43:58.950Z,101070.72
2018-09-22T21:49:01.142Z,101067.39
2018-09-22T21:54:03.659Z,101079.80
2018-09-22T21:59:05.830Z,101088.62
2018-09-22T22:04:09.121Z,101087.39
2018-09-22T22:09:12.583Z,101075.28
2018-09-22T22:14:14.754Z,101072.15
2018-09-22T22:19:16.945Z,101083.90
2018-09-22T22:24:19.125Z,101077.57
2018-09-22T22:29:21.330Z,101077.53
2018-09-22T22:34:23.490Z,101097.87
2018-09-22T22:39:25.649Z,101101.80
2018-09-22T22:44:27.843Z,101098.44
2018-09-22T22:49:30.030Z,101085.30
2018-09-22T22:54:32.186Z,101086.78
2018-09-22T22:59:34.398Z,101084.35
2018-09-22T23:04:36.775Z,101077.34
2018-09-22T23:09:38.983Z,101083.44
2018-09-22T23:14:41.137Z,101077.53
2018-09-22T23:19:43.330Z,101071.44
2018-09-22T23:24:45.465Z,101068.00
2018-09-22T23:29:47.628Z,101075.34
2018-09-22T23:34:49.771Z,101070.37
2018-09-22T23:39:51.915Z,101060.19
2018-09-22T23:44:54.443Z,101070.98
2018-09-22T23:49:56.563Z,101065.00
2018-09-22T23:54:58.689Z,101066.98
